Terminal Aerodrome Forecast
Issued by NWS St Louis, MO

Home | Current Version | Previous Version | Text Only | Print | Product List | Glossary On
Versions: 1 2 3 4 5 6 7 8 9 10 11 12 13 14 15 16 17 18 19 20 21 22 23
000
FTUS43 KLSX 281900 AAB
TAFCOU
TAF AMD
KCOU 281905Z 2819/0118 12009KT 1SM -SN BKN015
     FM010000 12005KT 1SM -SN OVC008
     FM010800 VRB04KT 4SM -SN OVC008
     FM011500 29006KT 6SM -SN OVC008=

USA.gov is the U.S. government's official web portal to all federal, state and local government web resources and services.